sensor_id;sensor_type;location;lat;lon;timestamp;temperature;humidity
29817;DHT22;16805;52.956;5.906;2024-01-15T00:02:13;3.10;99.90
29817;DHT22;16805;52.956;5.906;2024-01-15T00:04:39;3.10;99.90
29817;DHT22;16805;52.956;5.906;2024-01-15T00:07:06;3.10;99.90
29817;DHT22;16805;52.956;5.906;2024-01-15T00:09:31;3.10;99.90
29817;DHT22;16805;52.956;5.906;2024-01-15T00:11:57;3.00;99.90
29817;DHT22;16805;52.956;5.906;2024-01-15T00:14:24;3.00;99.90
29817;DHT22;16805;52.956;5.906;2024-01-15T00:16:50;3.00;99.90
29817;DHT22;16805;52.956;5.906;2024-01-15T00:19:17;3.00;99.90
29817;DHT22;16805;52.956;5.906;2024-01-15T00:21:47;3.00;99.90
29817;DHT22;16805;52.956;5.906;2024-01-15T00:24:13;3.00;99.90
29817;DHT22;16805;52.956;5.906;2024-01-15T00:26:39;3.00;99.90
29817;DHT22;16805;52.956;5.906;2024-01-15T00:29:08;3.00;99.90
29817;DHT22;16805;52.956;5.906;2024-01-15T00:31:34;3.00;99.90
29817;DHT22;16805;52.956;5.906;2024-01-15T00:34:03;2.90;99.90
29817;DHT22;16805;52.956;5.906;2024-01-15T00:36:29;2.90;99.90
29817;DHT22;16805;52.956;5.906;2024-01-15T00:38:57;3.00;99.90
29817;DHT22;16805;52.956;5.906;2024-01-15T00:41:25;3.00;99.90
29817;DHT22;16805;52.956;5.906;2024-01-15T00:43:53;3.10;99.90
29817;DHT22;16805;52.956;5.906;2024-01-15T00:46:21;3.10;99.90
29817;DHT22;16805;52.956;5.906;2024-01-15T00:48:48;3.10;99.90
29817;DHT22;16805;52.956;5.906;2024-01-15T00:51:14;3.10;99.90
29817;DHT22;16805;52.956;5.906;2024-01-15T00:53:40;3.10;99.90
29817;DHT22;16805;52.956;5.906;2024-01-15T00:56:05;3.10;99.90
29817;DHT22;16805;52.956;5.906;2024-01-15T00:58:31;3.10;99.90
29817;DHT22;16805;52.956;5.906;2024-01-15T01:00:56;3.10;99.90
29817;DHT22;16805;52.956;5.906;2024-01-15T01:03:22;3.10;99.90
29817;DHT22;16805;52.956;5.906;2024-01-15T01:05:50;3.00;99.90
29817;DHT22;16805;52.956;5.906;2024-01-15T01:08:16;3.00;99.90
29817;DHT22;16805;52.956;5.906;2024-01-15T01:10:43;3.00;99.90
29817;DHT22;16805;52.956;5.906;2024-01-15T01:13:14;2.90;99.90
29817;DHT22;16805;52.956;5.906;2024-01-15T01:15:40;2.80;99.90
29817;DHT22;16805;52.956;5.906;2024-01-15T01:18:09;2.70;99.90
29817;DHT22;16805;52.956;5.906;2024-01-15T01:20:36;2.70;99.90
29817;DHT22;16805;52.956;5.906;2024-01-15T01:23:01;2.60;99.90
29817;DHT22;16805;52.956;5.906;2024-01-15T01:25:28;2.60;99.90
29817;DHT22;16805;52.956;5.906;2024-01-15T01:27:53;2.50;99.90
29817;DHT22;16805;52.956;5.906;2024-01-15T01:30:20;2.50;99.90
29817;DHT22;16805;52.956;5.906;2024-01-15T01:32:46;2.50;99.90
29817;DHT22;16805;52.956;5.906;2024-01-15T01:35:12;2.60;99.90
29817;DHT22;16805;52.956;5.906;2024-01-15T01:37:38;2.60;99.90
29817;DHT22;16805;52.956;5.906;2024-01-15T01:40:05;2.60;99.90
29817;DHT22;16805;52.956;5.906;2024-01-15T01:42:31;2.60;99.90
29817;DHT22;16805;52.956;5.906;2024-01-15T01:44:56;2.60;99.90
29817;DHT22;16805;52.956;5.906;2024-01-15T01:47:22;2.60;99.90
29817;DHT22;16805;52.956;5.906;2024-01-15T01:49:52;2.50;99.90
29817;DHT22;16805;52.956;5.906;2024-01-15T01:52:19;2.50;99.90
29817;DHT22;16805;52.956;5.906;2024-01-15T01:54:46;2.40;99.90
29817;DHT22;16805;52.956;5.906;2024-01-15T01:57:15;2.30;99.90
29817;DHT22;16805;52.956;5.906;2024-01-15T01:59:41;2.30;99.90
29817;DHT22;16805;52.956;5.906;2024-01-15T02:02:09;2.30;99.90
29817;DHT22;16805;52.956;5.906;2024-01-15T02:04:36;2.30;99.90
29817;DHT22;16805;52.956;5.906;2024-01-15T02:07:02;2.30;99.90
29817;DHT22;16805;52.956;5.906;2024-01-15T02:09:28;2.30;99.90
29817;DHT22;16805;52.956;5.906;2024-01-15T02:11:54;2.30;99.90
29817;DHT22;16805;52.956;5.906;2024-01-15T02:14:23;2.30;99.90
29817;DHT22;16805;52.956;5.906;2024-01-15T02:16:49;2.40;99.90
29817;DHT22;16805;52.956;5.906;2024-01-15T02:19:16;2.40;99.90
29817;DHT22;16805;52.956;5.906;2024-01-15T02:21:42;2.50;99.90
29817;DHT22;16805;52.956;5.906;2024-01-15T02:24:08;2.50;99.90
29817;DHT22;16805;52.956;5.906;2024-01-15T02:26:35;2.50;99.90
29817;DHT22;16805;52.956;5.906;2024-01-15T02:29:04;2.60;99.90
29817;DHT22;16805;52.956;5.906;2024-01-15T02:31:30;2.60;99.90
29817;DHT22;16805;52.956;5.906;2024-01-15T02:33:56;2.60;99.90
29817;DHT22;16805;52.956;5.906;2024-01-15T02:36:26;2.60;99.90
29817;DHT22;16805;52.956;5.906;2024-01-15T02:38:52;2.60;99.90
29817;DHT22;16805;52.956;5.906;2024-01-15T02:41:18;2.60;99.90
29817;DHT22;16805;52.956;5.906;2024-01-15T02:43:45;2.60;99.90
29817;DHT22;16805;52.956;5.906;2024-01-15T02:46:10;2.60;99.90
29817;DHT22;16805;52.956;5.906;2024-01-15T02:48:37;2.60;99.90
29817;DHT22;16805;52.956;5.906;2024-01-15T02:51:03;2.60;99.90
29817;DHT22;16805;52.956;5.906;2024-01-15T02:53:28;2.60;99.90
29817;DHT22;16805;52.956;5.906;2024-01-15T02:55:54;2.60;99.90
29817;DHT22;16805;52.956;5.906;2024-01-15T02:58:19;2.60;99.90
29817;DHT22;16805;52.956;5.906;2024-01-15T03:00:45;2.70;99.90
29817;DHT22;16805;52.956;5.906;2024-01-15T03:03:12;2.70;99.90
29817;DHT22;16805;52.956;5.906;2024-01-15T03:05:38;2.60;99.90
29817;DHT22;16805;52.956;5.906;2024-01-15T03:08:04;2.50;99.90
29817;DHT22;16805;52.956;5.906;2024-01-15T03:10:30;2.50;99.90
29817;DHT22;16805;52.956;5.906;2024-01-15T03:12:55;2.50;99.90
29817;DHT22;16805;52.956;5.906;2024-01-15T03:15:21;2.50;99.90
29817;DHT22;16805;52.956;5.906;2024-01-15T03:17:48;2.50;99.90
29817;DHT22;16805;52.956;5.906;2024-01-15T03:20:16;2.50;99.90
29817;DHT22;16805;52.956;5.906;2024-01-15T03:22:42;2.60;99.90
29817;DHT22;16805;52.956;5.906;2024-01-15T03:25:08;2.60;99.90
29817;DHT22;16805;52.956;5.906;2024-01-15T03:27:34;2.60;99.90
29817;DHT22;16805;52.956;5.906;2024-01-15T03:29:59;2.70;99.90
29817;DHT22;16805;52.956;5.906;2024-01-15T03:32:25;2.70;99.90
29817;DHT22;16805;52.956;5.906;2024-01-15T03:34:52;2.80;99.90
29817;DHT22;16805;52.956;5.906;2024-01-15T03:37:18;2.80;99.90
29817;DHT22;16805;52.956;5.906;2024-01-15T03:39:43;2.80;99.90
29817;DHT22;16805;52.956;5.906;2024-01-15T03:42:09;2.80;99.90
29817;DHT22;16805;52.956;5.906;2024-01-15T03:44:34;2.80;99.90
29817;DHT22;16805;52.956;5.906;2024-01-15T03:47:01;2.80;99.90
29817;DHT22;16805;52.956;5.906;2024-01-15T03:49:29;2.80;99.90
29817;DHT22;16805;52.956;5.906;2024-01-15T03:51:55;2.80;99.90
29817;DHT22;16805;52.956;5.906;2024-01-15T03:54:20;2.80;99.90
29817;DHT22;16805;52.956;5.906;2024-01-15T03:56:46;2.80;99.90
29817;DHT22;16805;52.956;5.906;2024-01-15T03:59:11;2.80;99.90
29817;DHT22;16805;52.956;5.906;2024-01-15T04:01:37;2.80;99.90
29817;DHT22;16805;52.956;5.906;2024-01-15T04:04:03;2.80;99.90
29817;DHT22;16805;52.956;5.906;2024-01-15T04:06:28;2.80;99.90
29817;DHT22;16805;52.956;5.906;2024-01-15T04:08:55;2.80;99.90
29817;DHT22;16805;52.956;5.906;2024-01-15T04:11:21;2.80;99.90
29817;DHT22;16805;52.956;5.906;2024-01-15T04:13:48;2.70;99.90
29817;DHT22;16805;52.956;5.906;2024-01-15T04:16:13;2.70;99.90
29817;DHT22;16805;52.956;5.906;2024-01-15T04:18:40;2.70;99.90
29817;DHT22;16805;52.956;5.906;2024-01-15T04:21:06;2.60;99.90
29817;DHT22;16805;52.956;5.906;2024-01-15T04:23:34;2.60;99.90
29817;DHT22;16805;52.956;5.906;2024-01-15T04:26:00;2.60;99.90
29817;DHT22;16805;52.956;5.906;2024-01-15T04:28:26;2.60;99.90
29817;DHT22;16805;52.956;5.906;2024-01-15T04:30:52;2.60;99.90
29817;DHT22;16805;52.956;5.906;2024-01-15T04:33:17;2.60;99.90
29817;DHT22;16805;52.956;5.906;2024-01-15T04:35:43;2.60;99.90
29817;DHT22;16805;52.956;5.906;2024-01-15T04:38:08;2.70;99.90
29817;DHT22;16805;52.956;5.906;2024-01-15T04:40:35;2.70;99.90
29817;DHT22;16805;52.956;5.906;2024-01-15T04:43:02;2.70;99.90
29817;DHT22;16805;52.956;5.906;2024-01-15T04:45:27;2.70;99.90
29817;DHT22;16805;52.956;5.906;2024-01-15T04:47:55;2.70;99.90
29817;DHT22;16805;52.956;5.906;2024-01-15T04:50:22;2.70;99.90
29817;DHT22;16805;52.956;5.906;2024-01-15T04:52:48;2.70;99.90
29817;DHT22;16805;52.956;5.906;2024-01-15T04:55:13;2.80;99.90
29817;DHT22;16805;52.956;5.906;2024-01-15T04:57:39;2.70;99.90
29817;DHT22;16805;52.956;5.906;2024-01-15T05:00:05;2.70;99.90
29817;DHT22;16805;52.956;5.906;2024-01-15T05:02:31;2.60;99.90
29817;DHT22;16805;52.956;5.906;2024-01-15T05:04:56;2.60;99.90
29817;DHT22;16805;52.956;5.906;2024-01-15T05:07:22;2.60;99.90
29817;DHT22;16805;52.956;5.906;2024-01-15T05:09:48;2.60;99.90
29817;DHT22;16805;52.956;5.906;2024-01-15T05:12:13;2.70;99.90
29817;DHT22;16805;52.956;5.906;2024-01-15T05:14:39;2.70;99.90
29817;DHT22;16805;52.956;5.906;2024-01-15T05:17:06;2.70;99.90
29817;DHT22;16805;52.956;5.906;2024-01-15T05:19:31;2.70;99.90
29817;DHT22;16805;52.956;5.906;2024-01-15T05:21:57;2.70;99.90
29817;DHT22;16805;52.956;5.906;2024-01-15T05:24:22;2.70;99.90
29817;DHT22;16805;52.956;5.906;2024-01-15T05:26:48;2.70;99.90
29817;DHT22;16805;52.956;5.906;2024-01-15T05:29:13;2.60;99.90
29817;DHT22;16805;52.956;5.906;2024-01-15T05:31:39;2.60;99.90
29817;DHT22;16805;52.956;5.906;2024-01-15T05:34:05;2.60;99.90
29817;DHT22;16805;52.956;5.906;2024-01-15T05:36:30;2.60;99.90
29817;DHT22;16805;52.956;5.906;2024-01-15T05:38:56;2.60;99.90
29817;DHT22;16805;52.956;5.906;2024-01-15T05:41:21;2.60;99.90
29817;DHT22;16805;52.956;5.906;2024-01-15T05:43:47;2.50;99.90
29817;DHT22;16805;52.956;5.906;2024-01-15T05:46:16;2.40;99.90
29817;DHT22;16805;52.956;5.906;2024-01-15T05:49:02;2.40;99.90
29817;DHT22;16805;52.956;5.906;2024-01-15T05:51:29;2.50;99.90
29817;DHT22;16805;52.956;5.906;2024-01-15T05:53:57;2.50;99.90
29817;DHT22;16805;52.956;5.906;2024-01-15T05:56:23;2.50;99.90
29817;DHT22;16805;52.956;5.906;2024-01-15T05:58:49;2.60;99.90
29817;DHT22;16805;52.956;5.906;2024-01-15T06:01:17;2.60;99.90
29817;DHT22;16805;52.956;5.906;2024-01-15T06:03:45;2.60;99.90
29817;DHT22;16805;52.956;5.906;2024-01-15T06:06:18;2.60;99.90
29817;DHT22;16805;52.956;5.906;2024-01-15T06:08:43;2.60;99.90
29817;DHT22;16805;52.956;5.906;2024-01-15T06:11:09;2.60;99.90
29817;DHT22;16805;52.956;5.906;2024-01-15T06:13:37;2.60;99.90
29817;DHT22;16805;52.956;5.906;2024-01-15T06:16:16;2.60;99.90
29817;DHT22;16805;52.956;5.906;2024-01-15T06:18:43;2.60;99.90
29817;DHT22;16805;52.956;5.906;2024-01-15T06:21:08;2.60;99.90
29817;DHT22;16805;52.956;5.906;2024-01-15T06:23:37;2.60;99.90
29817;DHT22;16805;52.956;5.906;2024-01-15T06:26:02;2.60;99.90
29817;DHT22;16805;52.956;5.906;2024-01-15T06:28:29;2.60;99.90
29817;DHT22;16805;52.956;5.906;2024-01-15T06:30:56;2.50;99.90
29817;DHT22;16805;52.956;5.906;2024-01-15T06:33:22;2.50;99.90
29817;DHT22;16805;52.956;5.906;2024-01-15T06:35:47;2.40;99.90
29817;DHT22;16805;52.956;5.906;2024-01-15T06:38:13;2.30;99.90
29817;DHT22;16805;52.956;5.906;2024-01-15T06:40:41;2.20;99.90
29817;DHT22;16805;52.956;5.906;2024-01-15T06:43:12;2.10;99.90
29817;DHT22;16805;52.956;5.906;2024-01-15T06:45:38;2.20;99.90
29817;DHT22;16805;52.956;5.906;2024-01-15T06:48:05;2.20;99.90
29817;DHT22;16805;52.956;5.906;2024-01-15T06:50:34;2.20;99.90
29817;DHT22;16805;52.956;5.906;2024-01-15T06:52:59;2.30;99.90
29817;DHT22;16805;52.956;5.906;2024-01-15T06:55:25;2.40;99.90
29817;DHT22;16805;52.956;5.906;2024-01-15T06:57:51;2.40;99.90
29817;DHT22;16805;52.956;5.906;2024-01-15T07:00:17;2.40;99.90
29817;DHT22;16805;52.956;5.906;2024-01-15T07:02:45;2.50;99.90
29817;DHT22;16805;52.956;5.906;2024-01-15T07:05:10;2.50;99.90
29817;DHT22;16805;52.956;5.906;2024-01-15T07:07:36;2.50;99.90
29817;DHT22;16805;52.956;5.906;2024-01-15T07:10:05;2.60;99.90
29817;DHT22;16805;52.956;5.906;2024-01-15T07:12:31;2.60;99.90
29817;DHT22;16805;52.956;5.906;2024-01-15T07:14:57;2.60;99.90
29817;DHT22;16805;52.956;5.906;2024-01-15T07:17:22;2.50;99.90
29817;DHT22;16805;52.956;5.906;2024-01-15T07:19:48;2.60;99.90
29817;DHT22;16805;52.956;5.906;2024-01-15T07:22:14;2.60;99.90
29817;DHT22;16805;52.956;5.906;2024-01-15T07:24:43;2.50;99.90
29817;DHT22;16805;52.956;5.906;2024-01-15T07:27:11;2.60;99.90
29817;DHT22;16805;52.956;5.906;2024-01-15T07:29:37;2.60;99.90
29817;DHT22;16805;52.956;5.906;2024-01-15T07:32:06;2.60;99.90
29817;DHT22;16805;52.956;5.906;2024-01-15T07:34:33;2.50;99.90
29817;DHT22;16805;52.956;5.906;2024-01-15T07:36:58;2.50;99.90
29817;DHT22;16805;52.956;5.906;2024-01-15T07:39:26;2.50;99.90
29817;DHT22;16805;52.956;5.906;2024-01-15T07:41:54;2.50;99.90
29817;DHT22;16805;52.956;5.906;2024-01-15T07:44:21;2.60;99.90
29817;DHT22;16805;52.956;5.906;2024-01-15T07:46:49;2.60;99.90
29817;DHT22;16805;52.956;5.906;2024-01-15T07:49:16;2.60;99.90
29817;DHT22;16805;52.956;5.906;2024-01-15T07:51:42;2.60;99.90
29817;DHT22;16805;52.956;5.906;2024-01-15T07:54:10;2.60;99.90
29817;DHT22;16805;52.956;5.906;2024-01-15T07:56:57;2.70;99.90
29817;DHT22;16805;52.956;5.906;2024-01-15T07:59:23;2.70;99.90
29817;DHT22;16805;52.956;5.906;2024-01-15T08:01:50;2.70;99.90
29817;DHT22;16805;52.956;5.906;2024-01-15T08:04:17;2.70;99.90
29817;DHT22;16805;52.956;5.906;2024-01-15T08:06:42;2.70;99.90
29817;DHT22;16805;52.956;5.906;2024-01-15T08:09:08;2.70;99.90
29817;DHT22;16805;52.956;5.906;2024-01-15T08:11:34;2.70;99.90
29817;DHT22;16805;52.956;5.906;2024-01-15T08:14:00;2.70;99.90
29817;DHT22;16805;52.956;5.906;2024-01-15T08:16:26;2.70;99.90
29817;DHT22;16805;52.956;5.906;2024-01-15T08:18:53;2.70;99.90
29817;DHT22;16805;52.956;5.906;2024-01-15T08:21:19;2.80;99.90
29817;DHT22;16805;52.956;5.906;2024-01-15T08:23:46;2.80;99.90
29817;DHT22;16805;52.956;5.906;2024-01-15T08:26:11;2.80;99.90
29817;DHT22;16805;52.956;5.906;2024-01-15T08:28:37;2.70;99.90
29817;DHT22;16805;52.956;5.906;2024-01-15T08:31:02;2.80;99.90
29817;DHT22;16805;52.956;5.906;2024-01-15T08:33:28;2.80;99.90
29817;DHT22;16805;52.956;5.906;2024-01-15T08:35:55;2.80;99.90
29817;DHT22;16805;52.956;5.906;2024-01-15T08:38:21;2.80;99.90
29817;DHT22;16805;52.956;5.906;2024-01-15T08:40:47;2.80;99.90
29817;DHT22;16805;52.956;5.906;2024-01-15T08:43:13;2.80;99.90
29817;DHT22;16805;52.956;5.906;2024-01-15T08:45:38;2.80;99.90
29817;DHT22;16805;52.956;5.906;2024-01-15T08:48:04;2.80;99.90
29817;DHT22;16805;52.956;5.906;2024-01-15T08:50:30;2.90;99.90
29817;DHT22;16805;52.956;5.906;2024-01-15T08:52:57;2.90;99.90
29817;DHT22;16805;52.956;5.906;2024-01-15T08:55:23;3.00;99.90
29817;DHT22;16805;52.956;5.906;2024-01-15T08:57:49;3.00;99.90
29817;DHT22;16805;52.956;5.906;2024-01-15T09:00:15;2.90;99.90
29817;DHT22;16805;52.956;5.906;2024-01-15T09:02:41;2.90;99.90
29817;DHT22;16805;52.956;5.906;2024-01-15T09:05:07;2.90;99.90
29817;DHT22;16805;52.956;5.906;2024-01-15T09:07:35;2.90;99.90
29817;DHT22;16805;52.956;5.906;2024-01-15T09:10:01;2.80;99.90
29817;DHT22;16805;52.956;5.906;2024-01-15T09:12:27;2.80;99.90
29817;DHT22;16805;52.956;5.906;2024-01-15T09:14:53;2.70;99.90
29817;DHT22;16805;52.956;5.906;2024-01-15T09:17:20;2.70;99.90
29817;DHT22;16805;52.956;5.906;2024-01-15T09:19:48;2.70;99.90
29817;DHT22;16805;52.956;5.906;2024-01-15T09:22:17;2.70;99.90
29817;DHT22;16805;52.956;5.906;2024-01-15T09:24:44;2.70;99.90
29817;DHT22;16805;52.956;5.906;2024-01-15T09:27:10;2.70;99.90
29817;DHT22;16805;52.956;5.906;2024-01-15T09:29:35;2.70;99.90
29817;DHT22;16805;52.956;5.906;2024-01-15T09:32:05;2.70;99.90
29817;DHT22;16805;52.956;5.906;2024-01-15T09:34:31;2.80;99.90
29817;DHT22;16805;52.956;5.906;2024-01-15T09:36:56;2.80;99.90
29817;DHT22;16805;52.956;5.906;2024-01-15T09:39:23;2.80;99.90
29817;DHT22;16805;52.956;5.906;2024-01-15T09:41:49;2.90;99.90
29817;DHT22;16805;52.956;5.906;2024-01-15T09:44:16;2.90;99.90
29817;DHT22;16805;52.956;5.906;2024-01-15T09:46:42;2.90;99.90
29817;DHT22;16805;52.956;5.906;2024-01-15T09:49:10;2.90;99.90
29817;DHT22;16805;52.956;5.906;2024-01-15T09:51:36;2.90;99.90
29817;DHT22;16805;52.956;5.906;2024-01-15T09:54:03;2.90;99.90
29817;DHT22;16805;52.956;5.906;2024-01-15T09:56:31;2.90;99.90
29817;DHT22;16805;52.956;5.906;2024-01-15T09:58:57;3.00;99.90
29817;DHT22;16805;52.956;5.906;2024-01-15T10:01:24;3.10;99.90
29817;DHT22;16805;52.956;5.906;2024-01-15T10:03:51;3.20;99.90
29817;DHT22;16805;52.956;5.906;2024-01-15T10:06:18;3.40;99.90
29817;DHT22;16805;52.956;5.906;2024-01-15T10:08:52;3.50;99.90
29817;DHT22;16805;52.956;5.906;2024-01-15T10:11:18;3.70;99.90
29817;DHT22;16805;52.956;5.906;2024-01-15T10:13:45;3.70;99.90
29817;DHT22;16805;52.956;5.906;2024-01-15T10:16:10;3.80;99.90
29817;DHT22;16805;52.956;5.906;2024-01-15T10:18:36;3.80;99.90
29817;DHT22;16805;52.956;5.906;2024-01-15T10:21:03;3.80;99.90
29817;DHT22;16805;52.956;5.906;2024-01-15T10:23:31;3.60;99.90
29817;DHT22;16805;52.956;5.906;2024-01-15T10:25:58;3.60;99.90
29817;DHT22;16805;52.956;5.906;2024-01-15T10:28:26;3.50;99.90
29817;DHT22;16805;52.956;5.906;2024-01-15T10:30:56;3.50;99.90
29817;DHT22;16805;52.956;5.906;2024-01-15T10:33:22;3.30;99.90
29817;DHT22;16805;52.956;5.906;2024-01-15T10:35:54;3.30;99.90
29817;DHT22;16805;52.956;5.906;2024-01-15T10:38:23;3.20;99.90
29817;DHT22;16805;52.956;5.906;2024-01-15T10:40:54;3.20;99.90
29817;DHT22;16805;52.956;5.906;2024-01-15T10:43:20;3.10;99.90
29817;DHT22;16805;52.956;5.906;2024-01-15T10:45:47;3.00;99.90
29817;DHT22;16805;52.956;5.906;2024-01-15T10:48:13;3.00;99.90
29817;DHT22;16805;52.956;5.906;2024-01-15T10:50:40;3.00;99.90
29817;DHT22;16805;52.956;5.906;2024-01-15T10:53:06;2.90;99.90
29817;DHT22;16805;52.956;5.906;2024-01-15T10:55:33;2.90;99.90
29817;DHT22;16805;52.956;5.906;2024-01-15T10:58:01;2.90;99.90
29817;DHT22;16805;52.956;5.906;2024-01-15T11:00:29;2.90;99.90
29817;DHT22;16805;52.956;5.906;2024-01-15T11:02:55;2.90;99.90
29817;DHT22;16805;52.956;5.906;2024-01-15T11:05:22;2.90;99.90
29817;DHT22;16805;52.956;5.906;2024-01-15T11:07:49;2.90;99.90
29817;DHT22;16805;52.956;5.906;2024-01-15T11:13:15;2.90;99.90
29817;DHT22;16805;52.956;5.906;2024-01-15T11:19:15;3.10;99.90
29817;DHT22;16805;52.956;5.906;2024-01-15T11:21:49;3.20;99.90
29817;DHT22;16805;52.956;5.906;2024-01-15T11:24:47;3.20;99.90
29817;DHT22;16805;52.956;5.906;2024-01-15T11:40:41;3.00;99.90
29817;DHT22;16805;52.956;5.906;2024-01-15T11:43:11;3.00;99.90
29817;DHT22;16805;52.956;5.906;2024-01-15T11:45:56;2.90;99.90
29817;DHT22;16805;52.956;5.906;2024-01-15T11:51:51;2.90;99.90
29817;DHT22;16805;52.956;5.906;2024-01-15T11:57:53;2.80;99.90
29817;DHT22;16805;52.956;5.906;2024-01-15T12:00:29;2.70;99.90
29817;DHT22;16805;52.956;5.906;2024-01-15T12:03:07;2.70;99.90
29817;DHT22;16805;52.956;5.906;2024-01-15T12:05:43;2.70;99.90
29817;DHT22;16805;52.956;5.906;2024-01-15T12:08:11;2.60;99.90
29817;DHT22;16805;52.956;5.906;2024-01-15T12:10:42;2.60;99.90
29817;DHT22;16805;52.956;5.906;2024-01-15T12:13:20;2.50;99.90
29817;DHT22;16805;52.956;5.906;2024-01-15T12:15:51;2.50;99.90
29817;DHT22;16805;52.956;5.906;2024-01-15T12:18:23;2.60;99.90
29817;DHT22;16805;52.956;5.906;2024-01-15T12:20:54;2.60;99.90
29817;DHT22;16805;52.956;5.906;2024-01-15T12:23:26;2.60;99.90
29817;DHT22;16805;52.956;5.906;2024-01-15T12:25:54;2.70;99.90
29817;DHT22;16805;52.956;5.906;2024-01-15T12:28:22;2.70;99.90
29817;DHT22;16805;52.956;5.906;2024-01-15T12:30:53;2.80;99.90
29817;DHT22;16805;52.956;5.906;2024-01-15T12:33:24;2.90;99.90
29817;DHT22;16805;52.956;5.906;2024-01-15T12:35:53;2.90;99.90
29817;DHT22;16805;52.956;5.906;2024-01-15T12:38:24;3.00;99.90
29817;DHT22;16805;52.956;5.906;2024-01-15T12:40:53;3.00;99.90
29817;DHT22;16805;52.956;5.906;2024-01-15T12:43:26;3.10;99.90
29817;DHT22;16805;52.956;5.906;2024-01-15T12:45:56;3.10;99.90
29817;DHT22;16805;52.956;5.906;2024-01-15T12:48:27;3.10;99.90
29817;DHT22;16805;52.956;5.906;2024-01-15T12:50:58;3.10;99.90
29817;DHT22;16805;52.956;5.906;2024-01-15T12:53:28;3.20;99.90
29817;DHT22;16805;52.956;5.906;2024-01-15T12:55:55;3.10;99.90
29817;DHT22;16805;52.956;5.906;2024-01-15T12:58:29;3.10;99.90
29817;DHT22;16805;52.956;5.906;2024-01-15T13:00:57;3.20;99.90
29817;DHT22;16805;52.956;5.906;2024-01-15T13:03:26;3.20;99.90
29817;DHT22;16805;52.956;5.906;2024-01-15T13:06:15;3.20;99.90
29817;DHT22;16805;52.956;5.906;2024-01-15T13:09:12;3.30;99.90
29817;DHT22;16805;52.956;5.906;2024-01-15T13:11:44;3.20;99.90
29817;DHT22;16805;52.956;5.906;2024-01-15T13:14:26;3.20;99.90
29817;DHT22;16805;52.956;5.906;2024-01-15T13:17:04;3.20;99.90
29817;DHT22;16805;52.956;5.906;2024-01-15T13:19:33;3.20;99.90
29817;DHT22;16805;52.956;5.906;2024-01-15T13:22:11;3.20;99.90
29817;DHT22;16805;52.956;5.906;2024-01-15T13:24:46;3.20;99.90
29817;DHT22;16805;52.956;5.906;2024-01-15T13:27:15;3.20;99.90
29817;DHT22;16805;52.956;5.906;2024-01-15T13:29:52;3.30;99.90
29817;DHT22;16805;52.956;5.906;2024-01-15T13:32:25;3.40;99.90
29817;DHT22;16805;52.956;5.906;2024-01-15T13:35:00;3.40;99.90
29817;DHT22;16805;52.956;5.906;2024-01-15T13:37:35;3.40;99.90
29817;DHT22;16805;52.956;5.906;2024-01-15T13:40:03;3.40;99.90
29817;DHT22;16805;52.956;5.906;2024-01-15T13:42:50;3.50;99.90
29817;DHT22;16805;52.956;5.906;2024-01-15T13:45:19;3.50;99.90
29817;DHT22;16805;52.956;5.906;2024-01-15T13:47:49;3.50;99.90
29817;DHT22;16805;52.956;5.906;2024-01-15T13:50:27;3.50;99.90
29817;DHT22;16805;52.956;5.906;2024-01-15T13:53:02;3.50;99.90
29817;DHT22;16805;52.956;5.906;2024-01-15T13:55:29;3.60;99.90
29817;DHT22;16805;52.956;5.906;2024-01-15T13:58:02;3.60;99.90
29817;DHT22;16805;52.956;5.906;2024-01-15T14:00:32;3.60;99.90
29817;DHT22;16805;52.956;5.906;2024-01-15T14:03:02;3.60;99.90
29817;DHT22;16805;52.956;5.906;2024-01-15T14:05:32;3.50;99.90
29817;DHT22;16805;52.956;5.906;2024-01-15T14:07:59;3.50;99.90
29817;DHT22;16805;52.956;5.906;2024-01-15T14:10:29;3.50;99.90
29817;DHT22;16805;52.956;5.906;2024-01-15T14:12:58;3.40;99.90
29817;DHT22;16805;52.956;5.906;2024-01-15T14:15:23;3.40;99.90
29817;DHT22;16805;52.956;5.906;2024-01-15T14:17:51;3.30;99.90
29817;DHT22;16805;52.956;5.906;2024-01-15T14:20:18;3.30;99.90
29817;DHT22;16805;52.956;5.906;2024-01-15T14:22:45;3.20;99.90
29817;DHT22;16805;52.956;5.906;2024-01-15T14:25:11;3.30;99.90
29817;DHT22;16805;52.956;5.906;2024-01-15T14:27:38;3.20;99.90
29817;DHT22;16805;52.956;5.906;2024-01-15T14:30:08;3.30;99.90
29817;DHT22;16805;52.956;5.906;2024-01-15T14:32:35;3.20;99.90
29817;DHT22;16805;52.956;5.906;2024-01-15T14:35:06;3.30;99.90
29817;DHT22;16805;52.956;5.906;2024-01-15T14:37:43;3.20;99.90
29817;DHT22;16805;52.956;5.906;2024-01-15T14:40:13;3.20;99.90
29817;DHT22;16805;52.956;5.906;2024-01-15T14:42:42;3.20;99.90
29817;DHT22;16805;52.956;5.906;2024-01-15T14:45:09;3.20;99.90
29817;DHT22;16805;52.956;5.906;2024-01-15T14:47:40;3.20;99.90
29817;DHT22;16805;52.956;5.906;2024-01-15T14:50:10;3.30;99.90
29817;DHT22;16805;52.956;5.906;2024-01-15T14:52:38;3.30;99.90
29817;DHT22;16805;52.956;5.906;2024-01-15T14:55:05;3.30;99.90
29817;DHT22;16805;52.956;5.906;2024-01-15T14:57:33;3.30;99.90
29817;DHT22;16805;52.956;5.906;2024-01-15T14:59:59;3.20;99.90
29817;DHT22;16805;52.956;5.906;2024-01-15T15:02:26;3.20;99.90
29817;DHT22;16805;52.956;5.906;2024-01-15T15:04:54;3.20;99.90
29817;DHT22;16805;52.956;5.906;2024-01-15T15:07:23;3.20;99.90
29817;DHT22;16805;52.956;5.906;2024-01-15T15:09:49;3.20;99.90
29817;DHT22;16805;52.956;5.906;2024-01-15T15:12:19;3.20;99.90
29817;DHT22;16805;52.956;5.906;2024-01-15T15:14:45;3.10;99.90
29817;DHT22;16805;52.956;5.906;2024-01-15T15:17:14;3.10;99.90
29817;DHT22;16805;52.956;5.906;2024-01-15T15:19:46;3.10;99.90
29817;DHT22;16805;52.956;5.906;2024-01-15T15:22:12;3.00;99.90
29817;DHT22;16805;52.956;5.906;2024-01-15T15:27:23;2.90;99.90
29817;DHT22;16805;52.956;5.906;2024-01-15T15:29:50;2.80;99.90
29817;DHT22;16805;52.956;5.906;2024-01-15T15:32:18;2.80;99.90
29817;DHT22;16805;52.956;5.906;2024-01-15T15:37:26;2.80;99.90
29817;DHT22;16805;52.956;5.906;2024-01-15T15:39:54;2.80;99.90
29817;DHT22;16805;52.956;5.906;2024-01-15T15:42:21;2.80;99.90
29817;DHT22;16805;52.956;5.906;2024-01-15T15:44:52;2.80;99.90
29817;DHT22;16805;52.956;5.906;2024-01-15T15:47:28;2.80;99.90
29817;DHT22;16805;52.956;5.906;2024-01-15T15:49:54;2.70;99.90
29817;DHT22;16805;52.956;5.906;2024-01-15T15:52:20;2.70;99.90
29817;DHT22;16805;52.956;5.906;2024-01-15T15:54:47;2.60;99.90
29817;DHT22;16805;52.956;5.906;2024-01-15T15:57:19;2.60;99.90
29817;DHT22;16805;52.956;5.906;2024-01-15T15:59:46;2.50;99.90
29817;DHT22;16805;52.956;5.906;2024-01-15T16:02:15;2.40;99.90
29817;DHT22;16805;52.956;5.906;2024-01-15T16:04:53;2.40;99.90
29817;DHT22;16805;52.956;5.906;2024-01-15T16:07:25;2.30;99.90
29817;DHT22;16805;52.956;5.906;2024-01-15T16:10:11;2.40;99.90
29817;DHT22;16805;52.956;5.906;2024-01-15T16:12:49;2.40;99.90
29817;DHT22;16805;52.956;5.906;2024-01-15T16:15:22;2.40;99.90
29817;DHT22;16805;52.956;5.906;2024-01-15T16:17:55;2.40;99.90
29817;DHT22;16805;52.956;5.906;2024-01-15T16:20:21;2.30;99.90
29817;DHT22;16805;52.956;5.906;2024-01-15T16:22:50;2.30;99.90